Airfield :
LOGIN :

Register | Disclaimer

   EN    FR    IT 

 










Legend :    VFR   Marginal VFR   IFR   Intensive IFR   Very Intensive IFR
Visi :
Ceiling :
>= 8 km
>= 3000ft
5 to 8 km
1000 to 3000 ft
1500m to 5 km
500 to 1000 ft
800 to 1500m
200 to 500 ft
< 800m
< 200 ft
Symbols :   Thunderstorms  Fog  Heavy snow  Heavy precipitations  Wind > 20 kt
SIGMETs :     Misc.  Thunderstorms  Icing  Turbulence  Mountain Waves  Volcanic Ashes







- Airport Elevation : 49 ft
- IATA code : GLZ


EHGR - Gilze-Rijen Airbase

CURRENT METAR :
  • 190655Z AUTO 12004KT 080V140 8000 BR OVC110 12/11 Q1010 BLU 13005KT 9000 NSC

EXPIRED METARs :
  • 190645Z AUTO 13003KT 7000 BR OVC110 12/11 Q1010 WHT 13005KT 9000 NSC
  • 190627Z AUTO 13005KT 7000 BR OVC130 12/11 Q1010 WHT 13005KT 9000 NSC
  • 190555Z AUTO 13003KT 5000 BR SCT130 OVC280 11/11 Q1010 WHT
  • 190525Z AUTO 14003KT 5000 BR OVC130 12/11 Q1010 WHT
  • 190509Z AUTO 14002KT 5000 BR OVC130 12/11 Q1010 WHT
  • 190459Z AUTO 14001KT 5000 BR OVC120 11/11 Q1010 WHT
  • 190455Z AUTO 13001KT 4800 BR OVC120 11/11 Q1010 GRN
  • 190425Z AUTO 15002KT 4400 BR OVC280 11/10 Q1010 GRN
  • 190409Z AUTO 14002KT 4300 BR OVC280 11/11 Q1011 GRN
  • 190400Z AUTO 13002KT 3100 BR OVC290 10/10 Q1011 YLO

TAF TAF EHGR
Valid from the 19 at 05:00 until the 19 at 17:00 UTC


190429Z 1905/1917 VRB02KT 3000 BR NSC
PROB30 1905/1908 0500 BCFG FG
BECMG 1907/1909 16006KT 6000 NSW
No reported NOTAMs for that airfield.



MET'MAP, your aeronautical weather chart ! - Copyright ORBIFLY December 2007 - Disclaimer

ORBIFLY MET'MAP TEAM :

Programming & Development : Alexandra Zaïnal
Concept & Development : Baudouin d'Aumeries
Co-Development & Prog : Marc-Olivier Méhu
Technical & hardware support : Manuel Goepfert

Contact : metmap@orbifly.com




SOURCES & CREDITS :

   NOAA